Time;durP1;ratioP1;P1;durP2;ratioP2;P2;SDS_P1;SDS_P2;PMS_P1;PMS_P2;Temp;Humidity;BMP_temperature;BMP_pressure;BME280_temperature;BME280_humidity;BME280_pressure;Samples;Min_cycle;Max_cycle;Signal;HPM_P1;HPM_P2
2021/10/31 00:05:20;;;;;;;65.05;32.38;;;;;;;4.97;68.50;99082.19;3831709;90;21184;-89
2021/10/31 00:11:31;;;;;;;64.72;32.25;;;;;;;4.96;68.62;99086.59;3946266;88;21825;-89
2021/10/31 00:17:47;;;;;;;74.35;32.60;;;;;;;4.74;68.27;99092.63;3944023;88;21127;-91
2021/10/31 00:24:04;;;;;;;69.27;34.03;;;;;;;4.55;68.94;99082.86;3975651;87;21082;-89
2021/10/31 00:30:19;;;;;;;94.92;40.60;;;;;;;4.30;69.02;99087.14;3931952;87;21067;-88
2021/10/31 00:36:19;;;;;;;82.97;36.07;;;;;;;3.96;69.74;99099.59;3972815;87;21043;-90
2021/10/31 00:42:23;;;;;;;74.10;33.95;;;;;;;3.82;72.30;99095.75;3981538;87;21118;-88
2021/10/31 00:48:29;;;;;;;70.10;31.97;;;;;;;3.93;71.01;99104.31;3978712;86;21051;-88
2021/10/31 00:54:31;;;;;;;68.57;31.02;;;;;;;3.74;72.30;99095.83;3970252;86;21130;-89
2021/10/31 01:00:35;;;;;;;60.20;29.57;;;;;;;3.67;72.41;99113.12;3992278;86;21122;-88
2021/10/31 01:07:02;;;;;;;59.95;30.00;;;;;;;3.53;75.01;99108.50;3978738;86;21370;-88
2021/10/31 01:13:51;;;;;;;49.08;24.30;;;;;;;3.61;77.42;99091.43;3885359;87;21117;-89
2021/10/31 01:20:34;;;;;;;66.42;30.52;;;;;;;3.98;77.70;99081.08;3950049;87;21196;-90
2021/10/31 01:26:58;;;;;;;55.78;26.87;;;;;;;3.90;73.96;99084.66;4014200;88;21114;-89
2021/10/31 01:33:16;;;;;;;67.25;29.82;;;;;;;3.81;73.98;99102.30;3958461;88;21102;-89
2021/10/31 01:39:48;;;;;;;56.60;27.58;;;;;;;3.61;73.26;99104.97;3981865;86;21066;-87
2021/10/31 01:46:03;;;;;;;62.48;29.65;;;;;;;3.32;74.22;99103.02;3934748;86;21093;-87
2021/10/31 01:52:25;;;;;;;62.75;30.20;;;;;;;3.29;76.28;99113.72;3991322;88;21159;-88
2021/10/31 01:58:35;;;;;;;54.80;26.07;;;;;;;3.42;75.22;99107.28;4001581;86;21138;-88
2021/10/31 02:04:55;;;;;;;;;;;;;;;;;;;;;
2021/10/31 02:10:58;;;;;;;55.45;26.52;;;;;;;3.35;76.13;99110.52;3980433;87;21131;-89
2021/10/31 02:17:04;;;;;;;51.92;26.02;;;;;;;3.24;75.34;99120.10;3977769;87;21237;-88
2021/10/31 02:23:06;;;;;;;48.63;22.40;;;;;;;2.96;74.90;99124.32;3851862;90;21148;-88
2021/10/31 02:29:13;;;;;;;50.38;23.60;;;;;;;2.96;75.37;99116.20;3866396;90;21061;-90
2021/10/31 02:35:18;;;;;;;60.20;28.00;;;;;;;3.05;75.38;99119.09;3929338;88;21083;-89
2021/10/31 02:41:20;;;;;;;48.73;22.35;;;;;;;2.87;75.47;99118.92;3862217;89;21646;-90
2021/10/31 02:47:27;;;;;;;48.23;21.55;;;;;;;2.62;75.01;99110.84;3877383;89;21203;-88
2021/10/31 02:54:00;;;;;;;45.65;22.62;;;;;;;2.58;76.10;99115.31;3870727;89;21170;-90
2021/10/31 03:00:13;;;;;;;44.48;21.20;;;;;;;2.69;75.94;99112.52;3894835;89;21110;-89
2021/10/31 03:06:20;;;;;;;39.90;20.92;;;;;;;2.65;76.71;99120.46;3879737;89;21237;-89
2021/10/31 03:12:22;;;;;;;;;;;;;;;2.83;76.55;99123.94;3875069;89;21187;-88
2021/10/31 03:18:24;;;;;;;45.48;22.48;;;;;;;2.49;75.62;99132.86;3921418;88;20174;-89
2021/10/31 03:24:53;;;;;;;37.90;20.75;;;;;;;2.18;75.92;99132.22;3920774;88;21641;-88
2021/10/31 03:31:08;;;;;;;41.25;20.32;;;;;;;2.11;76.67;99125.16;3966516;87;21164;-89
2021/10/31 03:37:11;;;;;;;34.10;18.87;;;;;;;2.15;76.74;99133.41;3987126;87;21063;-90
2021/10/31 03:43:12;;;;;;;29.37;17.90;;;;;;;2.13;76.54;99128.31;3950208;88;21051;-87
2021/10/31 03:49:15;;;;;;;39.08;21.45;;;;;;;2.20;77.45;99142.16;4001002;87;21087;-90
2021/10/31 03:55:19;;;;;;;39.63;19.15;;;;;;;1.98;77.68;99138.78;3850986;86;5012043;-89
2021/10/31 04:01:36;;;;;;;33.70;17.25;;;;;;;1.98;78.45;99144.98;3739271;91;21602;-89
2021/10/31 04:08:06;;;;;;;35.03;17.52;;;;;;;2.18;78.28;99134.92;3799515;89;21773;-89
2021/10/31 04:14:17;;;;;;;31.35;16.05;;;;;;;2.09;78.69;99133.32;3824308;88;21160;-90
2021/10/31 04:20:33;;;;;;;41.18;19.62;;;;;;;2.29;78.72;99136.75;3737739;92;21166;-88
2021/10/31 04:26:37;;;;;;;27.22;15.38;;;;;;;2.09;78.08;99128.73;3821930;91;21164;-88
2021/10/31 04:32:46;;;;;;;31.27;15.95;;;;;;;1.94;78.37;99126.49;3793299;91;21256;-88
2021/10/31 04:45:52;;;;;;;83.17;35.90;;;;;;;1.78;78.09;99122.64;3874737;88;21735;-88
2021/10/31 04:51:57;;;;;;;69.77;30.05;;;;;;;1.51;79.45;99120.98;3874257;88;21122;-86
2021/10/31 04:58:00;;;;;;;94.30;40.92;;;;;;;1.26;78.73;99128.95;3892673;88;21133;-90
2021/10/31 05:04:01;;;;;;;224.35;85.45;;;;;;;1.10;79.74;99123.17;3807810;91;21159;-87
2021/10/31 05:10:04;;;;;;;135.10;53.38;;;;;;;1.15;79.75;99123.59;3820860;91;21099;-89
2021/10/31 05:16:05;;;;;;;100.87;42.62;;;;;;;1.23;80.33;99118.25;3819165;91;21716;-89
2021/10/31 05:22:07;;;;;;;62.40;27.82;;;;;;;1.39;80.70;99115.94;3814930;91;21102;-87
2021/10/31 05:28:09;;;;;;;72.42;32.28;;;;;;;1.27;79.60;99124.60;3765020;92;21205;-89
2021/10/31 05:34:11;;;;;;;66.45;27.90;;;;;;;1.43;80.82;99127.67;3902373;88;21082;-90
2021/10/31 05:40:16;;;;;;;47.78;23.62;;;;;;;1.60;80.75;99133.94;3876452;88;21058;-89
2021/10/31 05:46:18;;;;;;;36.90;18.33;;;;;;;1.53;80.49;99139.55;3886772;88;21129;-89
2021/10/31 05:52:20;;;;;;;60.28;26.75;;;;;;;1.26;79.97;99152.69;3879650;88;21092;-88
2021/10/31 05:58:21;;;;;;;56.65;26.45;;;;;;;1.14;79.99;99174.59;3877415;89;21073;-89
2021/10/31 06:04:25;;;;;;;55.92;27.15;;;;;;;1.03;80.80;99184.84;3880758;88;21075;-88
2021/10/31 06:10:26;;;;;;;58.42;28.10;;;;;;;1.17;81.49;99182.05;3892030;88;21856;-88
2021/10/31 06:16:28;;;;;;;47.00;22.32;;;;;;;1.44;81.50;99165.70;3884035;88;21119;-88
2021/10/31 06:22:29;;;;;;;42.80;21.97;;;;;;;1.61;81.91;99173.29;3811699;91;21170;-90
2021/10/31 06:28:30;;;;;;;32.58;19.02;;;;;;;2.11;82.56;99168.37;3825449;91;21398;-88
2021/10/31 06:34:32;;;;;;;30.15;17.95;;;;;;;2.21;81.39;99167.27;3880013;90;21444;-89
2021/10/31 06:40:33;;;;;;;29.95;17.15;;;;;;;2.35;81.43;99162.52;3825071;91;21113;-90
2021/10/31 06:46:35;;;;;;;40.52;20.97;;;;;;;2.56;81.77;99179.14;3765420;92;21173;-87
2021/10/31 06:52:36;;;;;;;37.90;18.17;;;;;;;2.75;81.29;99192.33;3757633;92;21139;-89
2021/10/31 06:58:38;;;;;;;40.85;20.43;;;;;;;3.06;81.60;99194.28;3740192;92;21627;-89
2021/10/31 07:04:45;;;;;;;45.45;21.87;;;;;;;3.43;82.21;99194.13;3771652;92;21205;-91
2021/10/31 07:10:49;;;;;;;37.28;19.15;;;;;;;4.19;82.09;99185.66;3763791;91;21618;-90
2021/10/31 07:16:50;;;;;;;40.60;23.55;;;;;;;5.27;82.90;99181.32;3830631;91;21078;-88
2021/10/31 07:22:53;;;;;;;45.10;23.40;;;;;;;6.12;81.79;99189.80;3829204;91;21178;-90
2021/10/31 07:28:54;;;;;;;38.02;21.55;;;;;;;7.16;80.58;99191.93;3831182;91;21394;-88
2021/10/31 07:34:56;;;;;;;36.55;20.32;;;;;;;8.06;79.83;99203.40;3811644;91;21043;-89
2021/10/31 07:40:57;;;;;;;32.80;18.98;;;;;;;8.61;78.66;99196.34;3825762;91;21641;-88
2021/10/31 07:46:59;;;;;;;35.85;20.50;;;;;;;9.16;78.20;99199.45;3825597;91;21115;-90
2021/10/31 07:53:04;;;;;;;41.65;20.92;;;;;;;9.31;77.17;99203.25;3820234;90;21698;-88
2021/10/31 07:59:11;;;;;;;34.50;19.07;;;;;;;9.85;76.85;99194.88;3902211;88;21186;-89
2021/10/31 08:05:13;;;;;;;27.30;16.67;;;;;;;10.66;75.18;99199.69;3896914;88;21158;-91
2021/10/31 08:11:15;;;;;;;30.97;17.32;;;;;;;11.61;75.66;99189.84;3890746;88;21614;-90
2021/10/31 08:17:17;;;;;;;29.67;17.57;;;;;;;12.44;74.37;99195.30;3826272;91;21154;-90
2021/10/31 08:23:20;;;;;;;31.20;17.23;;;;;;;13.39;73.01;99181.27;3823862;91;21126;-91
2021/10/31 08:29:24;;;;;;;25.82;16.73;;;;;;;14.23;72.43;99178.00;3825496;91;21112;-92
2021/10/31 08:35:27;;;;;;;32.30;17.00;;;;;;;14.89;70.71;99175.55;3825836;91;21754;-91
2021/10/31 08:41:30;;;;;;;27.27;16.90;;;;;;;15.75;70.52;99176.92;3803192;91;21147;-91
2021/10/31 08:47:36;;;;;;;26.25;16.40;;;;;;;16.51;68.21;99173.94;3885121;88;21172;-90
2021/10/31 08:53:41;;;;;;;27.70;16.07;;;;;;;16.48;66.86;99181.66;3823556;91;21085;-90
2021/10/31 08:59:50;;;;;;;26.42;15.45;;;;;;;16.54;66.12;99176.67;3809233;91;21129;-88
2021/10/31 09:05:54;;;;;;;21.48;14.93;;;;;;;17.43;64.99;99166.12;3819197;91;21123;-91
2021/10/31 09:12:03;;;;;;;19.00;13.28;;;;;;;17.79;61.72;99158.91;3823190;91;21146;-90
2021/10/31 09:18:06;;;;;;;20.30;14.10;;;;;;;18.80;62.79;99153.43;3758830;92;21510;-91
2021/10/31 09:24:09;;;;;;;19.77;12.37;;;;;;;19.78;60.71;99141.64;3818272;90;21141;-92
2021/10/31 09:30:11;;;;;;;14.55;10.72;;;;;;;20.23;60.07;99141.91;3902451;88;21119;-91
2021/10/31 09:36:13;;;;;;;16.75;10.68;;;;;;;21.03;58.94;99136.02;3890450;88;21083;-89
2021/10/31 09:42:20;;;;;;;14.18;9.78;;;;;;;21.57;56.38;99133.38;3890356;88;21124;-91
2021/10/31 09:48:34;;;;;;;12.40;8.63;;;;;;;22.04;56.54;99124.34;3878212;90;21083;-93
2021/10/31 09:54:37;;;;;;;12.73;8.95;;;;;;;22.44;54.59;99119.17;3881891;88;21119;-92
2021/10/31 10:00:48;;;;;;;13.05;7.92;;;;;;;22.50;52.99;99104.05;3867400;88;21152;-93
2021/10/31 10:06:58;;;;;;;6.58;5.85;;;;;;;22.95;51.94;99103.81;3888366;88;21089;-91
2021/10/31 10:13:29;;;;;;;7.97;4.78;;;;;;;23.44;50.52;99085.03;3909926;89;21108;-93
2021/10/31 10:19:38;;;;;;;8.05;4.58;;;;;;;23.00;48.80;99090.67;3896883;89;21155;-92
2021/10/31 10:25:43;;;;;;;5.30;4.15;;;;;;;22.98;46.13;99086.77;3894465;89;21681;-92
2021/10/31 10:32:03;;;;;;;8.00;5.33;;;;;;;22.69;45.02;99074.46;3907941;88;21644;-91
2021/10/31 10:38:17;;;;;;;6.12;4.40;;;;;;;21.84;43.19;99070.27;3905736;88;21131;-92
2021/10/31 10:44:35;;;;;;;8.05;4.30;;;;;;;21.46;41.79;99067.48;3893461;90;21133;-92
2021/10/31 10:50:43;;;;;;;8.55;4.92;;;;;;;21.07;41.30;99054.59;3882806;89;21621;-91
2021/10/31 10:57:10;;;;;;;7.83;4.72;;;;;;;20.85;40.63;99042.49;3868074;88;21164;-90
2021/10/31 11:03:20;;;;;;;8.73;5.90;;;;;;;20.88;40.72;99041.61;3884364;88;21228;-91
2021/10/31 11:09:26;;;;;;;11.80;6.25;;;;;;;21.02;40.94;99032.86;3893791;88;21834;-93
2021/10/31 11:15:33;;;;;;;6.87;5.05;;;;;;;21.03;40.50;99024.07;3879397;88;21798;-93
2021/10/31 11:21:36;;;;;;;6.92;5.03;;;;;;;20.84;39.75;99015.91;3895620;88;21156;-94
2021/10/31 11:27:39;;;;;;;10.63;5.45;;;;;;;20.43;39.52;99006.97;3899656;88;21666;-92
2021/10/31 11:33:44;;;;;;;9.25;5.75;;;;;;;20.07;39.47;98999.40;3878741;88;21448;-92
2021/10/31 11:39:48;;;;;;;8.80;5.87;;;;;;;19.79;39.35;98992.61;3903541;88;21108;-92
2021/10/31 11:45:58;;;;;;;9.23;5.90;;;;;;;19.52;39.20;98985.16;3855933;90;21099;-92
2021/10/31 11:59:22;;;;;;;7.37;5.58;;;;;;;19.15;39.51;98970.39;3798550;90;21721;-92
2021/10/31 12:13:13;;;;;;;8.88;5.95;;;;;;;18.75;39.72;98957.83;3753283;91;21133;-92
2021/10/31 12:20:05;;;;;;;8.48;5.90;;;;;;;18.57;39.79;98947.12;3617871;94;21833;-91
2021/10/31 12:26:55;;;;;;;10.38;6.05;;;;;;;18.54;40.09;98939.66;3673948;93;21134;-93
2021/10/31 12:33:13;;;;;;;8.63;5.83;;;;;;;18.47;40.28;98930.72;3483486;97;21160;-94
2021/10/31 12:40:07;;;;;;;7.50;5.75;;;;;;;18.42;40.65;98932.02;3669460;94;21151;-93
2021/10/31 12:46:22;;;;;;;9.30;5.60;;;;;;;18.38;40.67;98918.06;3707552;91;21603;-94
2021/10/31 12:52:28;;;;;;;11.03;5.12;;;;;;;18.39;40.62;98907.93;3769139;92;21246;-91
2021/10/31 12:58:31;;;;;;;9.55;5.40;;;;;;;18.47;40.37;98895.48;3805485;91;21051;-92
2021/10/31 13:04:53;;;;;;;10.35;4.95;;;;;;;18.40;40.53;98890.70;3885284;90;21139;-92
2021/10/31 13:10:55;;;;;;;7.72;5.17;;;;;;;18.39;40.64;98882.98;3884380;89;21093;-90
2021/10/31 13:17:04;;;;;;;9.40;5.47;;;;;;;18.32;40.30;98876.17;3886396;89;21559;-92
2021/10/31 13:23:09;;;;;;;7.95;5.47;;;;;;;18.25;40.78;98879.70;3881408;89;21080;-91
2021/10/31 13:29:14;;;;;;;8.90;5.22;;;;;;;18.13;40.87;98873.44;3873778;89;21156;-92
2021/10/31 13:35:19;;;;;;;6.72;4.67;;;;;;;18.02;40.81;98872.87;3877457;89;21112;-92
2021/10/31 13:41:41;;;;;;;10.58;5.20;;;;;;;17.91;40.71;98874.48;3880818;88;21139;-92
2021/10/31 13:47:56;;;;;;;8.55;5.12;;;;;;;17.74;40.71;98868.70;3871986;89;21187;-89
2021/10/31 13:54:00;;;;;;;9.03;5.53;;;;;;;17.55;40.69;98870.84;3874100;89;21136;-91
2021/10/31 14:00:10;;;;;;;8.48;5.80;;;;;;;17.39;40.95;98861.03;3890213;89;21208;-93
2021/10/31 14:06:20;;;;;;;10.58;6.00;;;;;;;17.22;41.20;98859.36;3885286;89;21156;-91
2021/10/31 14:12:22;;;;;;;8.65;6.08;;;;;;;17.01;41.59;98858.33;3869398;89;21646;-93
2021/10/31 14:18:24;;;;;;;10.30;6.90;;;;;;;16.84;41.95;98851.11;3889264;89;22435;-91
2021/10/31 14:24:27;;;;;;;12.03;7.58;;;;;;;16.65;42.37;98855.36;3873405;88;21650;-91
2021/10/31 14:30:29;;;;;;;10.15;6.40;;;;;;;16.43;42.74;98848.56;3880554;90;21121;-90
2021/10/31 14:36:33;;;;;;;12.65;7.35;;;;;;;16.27;43.12;98842.11;3885501;89;21080;-94
2021/10/31 14:42:35;;;;;;;16.15;8.20;;;;;;;16.08;43.52;98845.52;3867929;90;21156;-91
2021/10/31 14:48:44;;;;;;;15.15;8.43;;;;;;;15.86;43.94;98845.02;3872601;88;21148;-92
2021/10/31 14:54:50;;;;;;;14.28;7.83;;;;;;;15.65;44.38;98832.84;3860555;89;21180;-93
2021/10/31 15:00:59;;;;;;;14.00;8.37;;;;;;;15.46;44.88;98834.23;3865449;90;21226;-92
2021/10/31 15:07:00;;;;;;;11.30;7.30;;;;;;;15.23;45.41;98830.52;3844247;89;21111;-91
2021/10/31 15:13:01;;;;;;;15.30;7.60;;;;;;;14.86;46.17;98830.48;3780182;91;21181;-91
2021/10/31 15:19:05;;;;;;;14.65;7.62;;;;;;;14.41;46.80;98826.11;3759258;92;21125;-90
2021/10/31 15:25:09;;;;;;;15.72;8.00;;;;;;;13.98;47.38;98820.81;3791491;91;21132;-91
2021/10/31 15:31:10;;;;;;;11.70;9.03;;;;;;;13.63;48.00;98810.57;3777384;92;21122;-91
2021/10/31 15:37:14;;;;;;;19.10;10.75;;;;;;;13.32;48.63;98805.97;3788949;92;21142;-91
2021/10/31 15:43:15;;;;;;;23.65;13.72;;;;;;;12.94;49.13;98806.22;3765892;91;21370;-92
2021/10/31 15:49:19;;;;;;;18.15;11.45;;;;;;;12.57;49.87;98803.87;3776935;92;21243;-95
2021/10/31 15:55:21;;;;;;;17.27;10.15;;;;;;;12.18;50.71;98796.80;3806392;91;21186;-90
2021/10/31 16:01:25;;;;;;;28.05;15.28;;;;;;;11.87;51.36;98792.80;3808748;91;21137;-91
2021/10/31 16:07:27;;;;;;;31.97;16.27;;;;;;;11.51;52.07;98791.69;3859163;90;21148;-91
2021/10/31 16:13:36;;;;;;;36.20;19.10;;;;;;;11.24;52.61;98787.06;3883542;88;21168;-91
2021/10/31 16:19:38;;;;;;;46.60;23.98;;;;;;;11.05;53.06;98778.55;3808965;91;21761;-90
2021/10/31 16:25:40;;;;;;;31.12;17.35;;;;;;;10.82;53.55;98775.86;3808597;91;21666;-90
2021/10/31 16:31:42;;;;;;;29.15;15.85;;;;;;;10.50;54.18;98777.57;3777379;91;21105;-90
2021/10/31 16:37:45;;;;;;;24.47;15.98;;;;;;;10.21;54.81;98774.41;3814401;91;22501;-90
2021/10/31 16:43:50;;;;;;;36.28;20.97;;;;;;;10.02;55.47;98780.05;3807221;91;21118;-89
2021/10/31 16:49:51;;;;;;;112.92;53.42;;;;;;;9.92;56.04;98769.78;3781296;92;21110;-90
2021/10/31 16:55:57;;;;;;;32.30;19.07;;;;;;;9.74;56.21;98772.93;3793449;90;21221;-89
2021/10/31 17:02:06;;;;;;;26.33;17.25;;;;;;;9.52;57.20;98774.05;3801958;91;21134;-90
2021/10/31 17:08:23;;;;;;;65.30;32.78;;;;;;;9.38;57.26;98780.70;3809773;91;21199;-90
2021/10/31 17:14:31;;;;;;;111.05;54.58;;;;;;;9.10;58.00;98770.79;3883225;89;21086;-91
2021/10/31 17:20:56;;;;;;;;;;;;;;;;;;;;;
2021/10/31 17:27:00;;;;;;;92.42;47.30;;;;;;;8.65;58.90;98766.04;3807721;90;21134;-90
2021/10/31 17:33:11;;;;;;;41.25;23.83;;;;;;;8.41;59.59;98766.47;3790455;91;21789;-91
2021/10/31 17:39:16;;;;;;;44.85;24.55;;;;;;;8.41;60.41;98767.23;3809915;90;21124;-90
2021/10/31 17:45:38;;;;;;;60.48;33.30;;;;;;;8.25;60.81;98775.35;3789450;90;21180;-92
2021/10/31 17:58:13;;;;;;;57.88;31.48;;;;;;;7.70;61.47;98774.76;3602126;94;21177;-92
2021/10/31 18:04:16;;;;;;;54.88;30.00;;;;;;;7.23;61.52;98772.84;3757145;92;21376;-91
2021/10/31 18:10:23;;;;;;;81.60;41.90;;;;;;;7.01;62.03;98772.19;3766144;92;21196;-90
2021/10/31 18:16:27;;;;;;;77.67;39.38;;;;;;;6.77;63.20;98758.02;3760568;91;22428;-90
2021/10/31 18:22:31;;;;;;;60.35;34.40;;;;;;;6.73;63.43;98756.60;3782263;92;21626;-89
2021/10/31 18:28:33;;;;;;;74.45;39.10;;;;;;;6.49;63.97;98761.45;3760623;92;21149;-90
2021/10/31 18:34:34;;;;;;;58.17;30.27;;;;;;;6.40;64.72;98745.34;3829823;89;21478;-91
2021/10/31 18:40:36;;;;;;;94.35;45.38;;;;;;;6.04;64.84;98757.86;3878390;89;21621;-90
2021/10/31 18:46:37;;;;;;;78.40;41.65;;;;;;;5.97;65.46;98747.59;3879748;89;21104;-90
2021/10/31 18:52:43;;;;;;;81.25;41.63;;;;;;;5.81;65.67;98744.64;3880264;89;21185;-92
2021/10/31 18:58:57;;;;;;;61.95;32.85;;;;;;;5.81;66.41;98729.70;3875477;88;21189;-92
2021/10/31 19:05:20;;;;;;;90.60;45.58;;;;;;;5.62;65.97;98729.59;3715084;93;22315;-90
2021/10/31 19:11:27;;;;;;;92.92;48.75;;;;;;;5.14;66.46;98736.61;3741090;92;21782;-90
2021/10/31 19:17:28;;;;;;;72.95;40.88;;;;;;;4.96;67.38;98723.90;3747330;91;21131;-92
2021/10/31 19:23:53;;;;;;;91.42;48.13;;;;;;;5.07;68.27;98734.48;3751504;91;21186;-90
2021/10/31 19:36:51;;;;;;;75.87;40.60;;;;;;;4.69;67.99;98728.16;3873360;88;21104;-90
2021/10/31 19:43:30;;;;;;;99.77;52.38;;;;;;;4.83;68.71;98720.98;3860302;89;21135;-90
2021/10/31 19:49:30;;;;;;;95.70;48.95;;;;;;;4.64;69.10;98711.31;3886620;90;21131;-89
2021/10/31 19:55:32;;;;;;;76.22;41.77;;;;;;;4.73;69.23;98701.12;3878630;89;21628;-92
2021/10/31 20:01:34;;;;;;;85.60;41.58;;;;;;;4.81;69.22;98700.20;3842178;88;21196;-91
2021/10/31 20:07:38;;;;;;;87.37;50.38;;;;;;;4.52;69.26;98695.09;3872106;88;21191;-90
2021/10/31 20:13:40;;;;;;;75.47;41.83;;;;;;;4.30;69.61;98693.66;3862323;89;21113;-89
2021/10/31 20:19:42;;;;;;;70.37;36.83;;;;;;;4.06;70.00;98686.09;3875968;89;21217;-93
2021/10/31 20:25:46;;;;;;;95.03;49.80;;;;;;;4.34;70.21;98690.48;3877821;89;22617;-89
2021/10/31 20:32:06;;;;;;;81.87;41.90;;;;;;;4.28;70.62;98681.56;3800408;90;21177;-88
2021/10/31 20:38:20;;;;;;;78.50;42.95;;;;;;;3.94;70.60;98669.86;3870467;88;21592;-90
2021/10/31 20:52:04;;;;;;;88.60;47.70;;;;;;;4.00;71.22;98663.09;3832933;89;21204;-91
2021/10/31 20:58:31;;;;;;;74.53;43.52;;;;;;;3.79;71.97;98642.89;3754172;88;21301;-90
2021/10/31 21:11:53;;;;;;;90.20;46.88;;;;;;;3.56;71.52;98645.82;3698666;92;21271;-90
2021/10/31 21:18:03;;;;;;;90.53;49.70;;;;;;;3.36;72.23;98632.38;3749748;91;21161;-90
2021/10/31 21:24:12;;;;;;;96.15;51.90;;;;;;;3.42;72.74;98638.59;3816925;91;21952;-88
2021/10/31 21:30:10;;;;;;;79.40;44.40;;;;;;;3.32;72.42;98640.37;3812871;91;21218;-91
2021/10/31 21:36:11;;;;;;;81.32;41.98;;;;;;;3.18;73.05;98636.63;3820699;90;21138;-89
2021/10/31 21:42:12;;;;;;;87.42;47.88;;;;;;;3.44;73.92;98623.38;3818640;91;21628;-89
2021/10/31 21:48:15;;;;;;;87.82;50.55;;;;;;;3.45;72.91;98614.11;3809045;91;21705;-91
2021/10/31 21:54:16;;;;;;;78.33;44.63;;;;;;;3.14;73.02;98609.23;3814938;91;21296;-90
2021/10/31 22:00:19;;;;;;;79.47;41.83;;;;;;;2.94;73.75;98602.76;3875015;88;21078;-88
2021/10/31 22:06:21;;;;;;;84.62;46.37;;;;;;;2.90;74.29;98598.35;3883734;88;21714;-91
2021/10/31 22:12:22;;;;;;;75.40;38.23;;;;;;;2.85;73.66;98598.01;3888345;90;21089;-88
2021/10/31 22:18:26;;;;;;;80.95;43.68;;;;;;;2.73;74.23;98597.98;3867882;89;21583;-88
2021/10/31 22:24:28;;;;;;;74.67;42.73;;;;;;;2.80;74.30;98595.51;3871659;89;21142;-88
2021/10/31 22:30:29;;;;;;;80.53;44.93;;;;;;;2.41;73.36;98593.34;3893594;88;22429;-88
2021/10/31 22:36:31;;;;;;;74.65;43.28;;;;;;;2.48;74.25;98582.80;3873209;88;21646;-89
2021/10/31 22:42:32;;;;;;;81.85;41.95;;;;;;;2.36;74.99;98579.25;3800526;91;21134;-88
2021/10/31 22:48:34;;;;;;;72.03;38.30;;;;;;;2.36;74.83;98569.80;3811730;91;21135;-89
2021/10/31 22:54:37;;;;;;;80.65;42.27;;;;;;;2.24;74.67;98575.16;3795646;91;21154;-88
2021/10/31 23:00:57;;;;;;;81.10;45.40;;;;;;;2.07;75.04;98557.74;3817498;91;21170;-90
2021/10/31 23:06:59;;;;;;;82.47;41.77;;;;;;;1.94;75.32;98562.28;3812471;91;21160;-90
2021/10/31 23:13:01;;;;;;;83.40;43.50;;;;;;;1.75;76.18;98564.63;3864088;90;21115;-88
2021/10/31 23:19:03;;;;;;;77.67;40.48;;;;;;;1.69;75.93;98555.70;3883197;89;21095;-91
2021/10/31 23:25:08;;;;;;;85.40;43.85;;;;;;;1.78;76.35;98572.62;3888470;88;21614;-91
2021/10/31 23:31:11;;;;;;;74.50;40.03;;;;;;;1.81;76.25;98557.92;3877086;88;21204;-90
2021/10/31 23:37:13;;;;;;;71.95;39.18;;;;;;;1.71;76.51;98561.57;3888115;88;21641;-90
2021/10/31 23:43:15;;;;;;;92.50;41.83;;;;;;;1.83;76.20;98561.64;3885847;89;21073;-89
2021/10/31 23:49:17;;;;;;;97.62;43.75;;;;;;;1.63;76.11;98553.73;3880146;90;21571;-89
2021/10/31 23:55:19;;;;;;;84.32;37.35;;;;;;;1.47;76.60;98540.61;3884260;88;21221;-90
